sensor_id;sensor_type;location;lat;lon;timestamp;P1;durP1;ratioP1;P2;durP2;ratioP2
52724;SDS011;38621;52.830;6.914;2023-01-19T00:01:15;10.32;;;8.52;;
52724;SDS011;38621;52.830;6.914;2023-01-19T00:03:40;11.95;;;8.98;;
52724;SDS011;38621;52.830;6.914;2023-01-19T00:06:06;10.70;;;9.05;;
52724;SDS011;38621;52.830;6.914;2023-01-19T00:08:32;11.43;;;9.18;;
52724;SDS011;38621;52.830;6.914;2023-01-19T00:10:59;13.90;;;8.10;;
52724;SDS011;38621;52.830;6.914;2023-01-19T00:13:26;11.32;;;9.88;;
52724;SDS011;38621;52.830;6.914;2023-01-19T00:15:52;12.60;;;10.60;;
52724;SDS011;38621;52.830;6.914;2023-01-19T00:18:17;9.88;;;7.18;;
52724;SDS011;38621;52.830;6.914;2023-01-19T00:20:44;10.57;;;7.57;;
52724;SDS011;38621;52.830;6.914;2023-01-19T00:23:10;10.25;;;7.78;;
52724;SDS011;38621;52.830;6.914;2023-01-19T00:25:37;8.90;;;8.00;;
52724;SDS011;38621;52.830;6.914;2023-01-19T00:28:10;11.80;;;8.10;;
52724;SDS011;38621;52.830;6.914;2023-01-19T00:30:37;9.60;;;7.45;;
52724;SDS011;38621;52.830;6.914;2023-01-19T00:33:03;9.95;;;6.43;;
52724;SDS011;38621;52.830;6.914;2023-01-19T00:35:29;7.80;;;6.97;;
52724;SDS011;38621;52.830;6.914;2023-01-19T00:37:55;8.68;;;7.13;;
52724;SDS011;38621;52.830;6.914;2023-01-19T00:40:22;8.52;;;7.53;;
52724;SDS011;38621;52.830;6.914;2023-01-19T00:42:48;9.40;;;6.70;;
52724;SDS011;38621;52.830;6.914;2023-01-19T00:45:18;8.68;;;7.45;;
52724;SDS011;38621;52.830;6.914;2023-01-19T00:47:46;7.03;;;5.88;;
52724;SDS011;38621;52.830;6.914;2023-01-19T00:50:13;8.00;;;6.50;;
52724;SDS011;38621;52.830;6.914;2023-01-19T00:52:41;7.85;;;7.05;;
52724;SDS011;38621;52.830;6.914;2023-01-19T00:55:09;6.57;;;5.65;;
52724;SDS011;38621;52.830;6.914;2023-01-19T00:57:37;6.13;;;5.43;;
52724;SDS011;38621;52.830;6.914;2023-01-19T01:00:04;6.10;;;5.43;;
52724;SDS011;38621;52.830;6.914;2023-01-19T01:02:35;6.35;;;5.50;;
52724;SDS011;38621;52.830;6.914;2023-01-19T01:05:05;7.22;;;6.53;;
52724;SDS011;38621;52.830;6.914;2023-01-19T01:07:31;6.93;;;6.05;;
52724;SDS011;38621;52.830;6.914;2023-01-19T01:10:19;6.57;;;5.90;;
52724;SDS011;38621;52.830;6.914;2023-01-19T01:12:46;6.25;;;5.65;;
52724;SDS011;38621;52.830;6.914;2023-01-19T01:15:13;6.20;;;4.88;;
52724;SDS011;38621;52.830;6.914;2023-01-19T01:17:41;7.07;;;5.75;;
52724;SDS011;38621;52.830;6.914;2023-01-19T01:20:11;9.10;;;7.05;;
52724;SDS011;38621;52.830;6.914;2023-01-19T01:22:42;7.85;;;6.75;;
52724;SDS011;38621;52.830;6.914;2023-01-19T01:25:10;7.63;;;6.82;;
52724;SDS011;38621;52.830;6.914;2023-01-19T01:27:37;6.03;;;5.43;;
52724;SDS011;38621;52.830;6.914;2023-01-19T01:30:03;8.65;;;7.28;;
52724;SDS011;38621;52.830;6.914;2023-01-19T01:32:29;7.57;;;5.88;;
52724;SDS011;38621;52.830;6.914;2023-01-19T01:34:55;8.88;;;7.55;;
52724;SDS011;38621;52.830;6.914;2023-01-19T01:37:20;8.18;;;7.20;;
52724;SDS011;38621;52.830;6.914;2023-01-19T01:39:46;10.48;;;8.98;;
52724;SDS011;38621;52.830;6.914;2023-01-19T01:42:16;9.48;;;8.43;;
52724;SDS011;38621;52.830;6.914;2023-01-19T01:44:56;9.75;;;8.27;;
52724;SDS011;38621;52.830;6.914;2023-01-19T01:47:38;11.00;;;9.35;;
52724;SDS011;38621;52.830;6.914;2023-01-19T01:50:10;10.43;;;8.98;;
52724;SDS011;38621;52.830;6.914;2023-01-19T01:52:44;12.07;;;10.50;;
52724;SDS011;38621;52.830;6.914;2023-01-19T01:55:13;11.02;;;8.57;;
52724;SDS011;38621;52.830;6.914;2023-01-19T01:57:41;10.68;;;8.77;;
52724;SDS011;38621;52.830;6.914;2023-01-19T02:00:10;10.68;;;9.50;;
52724;SDS011;38621;52.830;6.914;2023-01-19T02:02:37;12.63;;;10.90;;
52724;SDS011;38621;52.830;6.914;2023-01-19T02:05:36;11.77;;;10.57;;
52724;SDS011;38621;52.830;6.914;2023-01-19T02:08:06;10.30;;;7.55;;
52724;SDS011;38621;52.830;6.914;2023-01-19T02:11:01;10.40;;;9.27;;
52724;SDS011;38621;52.830;6.914;2023-01-19T02:13:47;12.35;;;9.80;;
52724;SDS011;38621;52.830;6.914;2023-01-19T02:16:13;10.73;;;8.95;;
52724;SDS011;38621;52.830;6.914;2023-01-19T02:18:41;12.57;;;10.95;;
52724;SDS011;38621;52.830;6.914;2023-01-19T02:21:09;12.98;;;10.93;;
52724;SDS011;38621;52.830;6.914;2023-01-19T02:26:09;12.10;;;10.18;;
52724;SDS011;38621;52.830;6.914;2023-01-19T02:28:41;13.15;;;10.70;;
52724;SDS011;38621;52.830;6.914;2023-01-19T02:31:10;13.05;;;11.50;;
52724;SDS011;38621;52.830;6.914;2023-01-19T02:33:37;13.57;;;10.60;;
52724;SDS011;38621;52.830;6.914;2023-01-19T02:36:03;12.25;;;10.13;;
52724;SDS011;38621;52.830;6.914;2023-01-19T02:38:32;13.05;;;10.65;;
52724;SDS011;38621;52.830;6.914;2023-01-19T02:40:59;12.95;;;10.55;;
52724;SDS011;38621;52.830;6.914;2023-01-19T02:43:26;12.23;;;9.80;;
52724;SDS011;38621;52.830;6.914;2023-01-19T02:45:54;13.45;;;9.73;;
52724;SDS011;38621;52.830;6.914;2023-01-19T02:48:20;10.75;;;8.13;;
52724;SDS011;38621;52.830;6.914;2023-01-19T02:50:47;12.27;;;9.43;;
52724;SDS011;38621;52.830;6.914;2023-01-19T02:55:55;10.63;;;7.78;;
52724;SDS011;38621;52.830;6.914;2023-01-19T03:07:08;13.63;;;10.48;;
52724;SDS011;38621;52.830;6.914;2023-01-19T03:15:14;15.48;;;11.32;;
52724;SDS011;38621;52.830;6.914;2023-01-19T03:17:48;13.40;;;11.20;;
52724;SDS011;38621;52.830;6.914;2023-01-19T03:20:17;16.25;;;12.15;;
52724;SDS011;38621;52.830;6.914;2023-01-19T03:22:47;13.68;;;11.07;;
52724;SDS011;38621;52.830;6.914;2023-01-19T03:25:16;14.10;;;10.27;;
52724;SDS011;38621;52.830;6.914;2023-01-19T03:27:44;16.63;;;11.95;;
52724;SDS011;38621;52.830;6.914;2023-01-19T03:30:21;15.23;;;12.15;;
52724;SDS011;38621;52.830;6.914;2023-01-19T03:32:51;16.67;;;12.25;;
52724;SDS011;38621;52.830;6.914;2023-01-19T03:35:21;17.15;;;11.90;;
52724;SDS011;38621;52.830;6.914;2023-01-19T03:37:49;15.63;;;11.75;;
52724;SDS011;38621;52.830;6.914;2023-01-19T03:40:18;17.75;;;12.68;;
52724;SDS011;38621;52.830;6.914;2023-01-19T03:42:45;13.98;;;11.00;;
52724;SDS011;38621;52.830;6.914;2023-01-19T03:45:13;13.57;;;10.02;;
52724;SDS011;38621;52.830;6.914;2023-01-19T03:47:39;17.90;;;13.10;;
52724;SDS011;38621;52.830;6.914;2023-01-19T03:50:06;15.50;;;11.43;;
52724;SDS011;38621;52.830;6.914;2023-01-19T03:52:37;14.45;;;11.32;;
52724;SDS011;38621;52.830;6.914;2023-01-19T03:55:03;17.15;;;13.02;;
52724;SDS011;38621;52.830;6.914;2023-01-19T03:57:30;13.48;;;11.52;;
52724;SDS011;38621;52.830;6.914;2023-01-19T03:59:56;14.50;;;10.43;;
52724;SDS011;38621;52.830;6.914;2023-01-19T04:02:22;14.00;;;11.07;;
52724;SDS011;38621;52.830;6.914;2023-01-19T04:04:48;14.68;;;10.85;;
52724;SDS011;38621;52.830;6.914;2023-01-19T04:07:14;13.38;;;10.57;;
52724;SDS011;38621;52.830;6.914;2023-01-19T04:09:40;14.63;;;10.50;;
52724;SDS011;38621;52.830;6.914;2023-01-19T04:12:06;13.50;;;10.25;;
52724;SDS011;38621;52.830;6.914;2023-01-19T04:14:32;14.68;;;9.73;;
52724;SDS011;38621;52.830;6.914;2023-01-19T04:16:57;13.25;;;9.73;;
52724;SDS011;38621;52.830;6.914;2023-01-19T04:19:23;12.88;;;9.52;;
52724;SDS011;38621;52.830;6.914;2023-01-19T04:21:49;14.00;;;9.68;;
52724;SDS011;38621;52.830;6.914;2023-01-19T04:24:15;13.05;;;9.18;;
52724;SDS011;38621;52.830;6.914;2023-01-19T04:26:41;13.50;;;10.43;;
52724;SDS011;38621;52.830;6.914;2023-01-19T04:29:07;16.48;;;11.32;;
52724;SDS011;38621;52.830;6.914;2023-01-19T04:31:33;12.07;;;9.45;;
52724;SDS011;38621;52.830;6.914;2023-01-19T04:34:01;13.43;;;10.00;;
52724;SDS011;38621;52.830;6.914;2023-01-19T04:36:27;10.80;;;8.02;;
52724;SDS011;38621;52.830;6.914;2023-01-19T04:38:53;11.50;;;8.55;;
52724;SDS011;38621;52.830;6.914;2023-01-19T04:41:19;10.48;;;7.97;;
52724;SDS011;38621;52.830;6.914;2023-01-19T04:43:45;10.45;;;8.25;;
52724;SDS011;38621;52.830;6.914;2023-01-19T04:46:12;10.77;;;7.65;;
52724;SDS011;38621;52.830;6.914;2023-01-19T04:48:38;9.40;;;7.18;;
52724;SDS011;38621;52.830;6.914;2023-01-19T04:51:04;10.73;;;7.53;;
52724;SDS011;38621;52.830;6.914;2023-01-19T04:53:30;9.35;;;6.72;;
52724;SDS011;38621;52.830;6.914;2023-01-19T04:55:55;9.45;;;6.88;;
52724;SDS011;38621;52.830;6.914;2023-01-19T04:58:21;11.15;;;7.65;;
52724;SDS011;38621;52.830;6.914;2023-01-19T05:00:47;10.30;;;7.03;;
52724;SDS011;38621;52.830;6.914;2023-01-19T05:03:15;9.02;;;6.55;;
52724;SDS011;38621;52.830;6.914;2023-01-19T05:05:40;7.35;;;5.78;;
52724;SDS011;38621;52.830;6.914;2023-01-19T05:08:06;8.75;;;6.47;;
52724;SDS011;38621;52.830;6.914;2023-01-19T05:10:32;8.40;;;6.07;;
52724;SDS011;38621;52.830;6.914;2023-01-19T05:12:57;7.07;;;4.55;;
52724;SDS011;38621;52.830;6.914;2023-01-19T05:15:23;8.15;;;5.30;;
52724;SDS011;38621;52.830;6.914;2023-01-19T05:17:49;8.57;;;6.22;;
52724;SDS011;38621;52.830;6.914;2023-01-19T05:20:14;8.40;;;6.18;;
52724;SDS011;38621;52.830;6.914;2023-01-19T05:22:41;8.32;;;5.88;;
52724;SDS011;38621;52.830;6.914;2023-01-19T05:25:07;7.97;;;5.68;;
52724;SDS011;38621;52.830;6.914;2023-01-19T05:27:33;9.30;;;6.47;;
52724;SDS011;38621;52.830;6.914;2023-01-19T05:30:00;10.18;;;6.38;;
52724;SDS011;38621;52.830;6.914;2023-01-19T05:32:25;7.97;;;5.70;;
52724;SDS011;38621;52.830;6.914;2023-01-19T05:34:51;9.02;;;5.13;;
52724;SDS011;38621;52.830;6.914;2023-01-19T05:37:17;9.40;;;5.63;;
52724;SDS011;38621;52.830;6.914;2023-01-19T05:39:43;8.30;;;6.07;;
52724;SDS011;38621;52.830;6.914;2023-01-19T05:42:08;11.35;;;6.20;;
52724;SDS011;38621;52.830;6.914;2023-01-19T05:44:34;10.93;;;6.40;;
52724;SDS011;38621;52.830;6.914;2023-01-19T05:47:00;9.93;;;6.20;;
52724;SDS011;38621;52.830;6.914;2023-01-19T05:49:25;9.45;;;6.68;;
52724;SDS011;38621;52.830;6.914;2023-01-19T05:51:51;9.75;;;6.80;;
52724;SDS011;38621;52.830;6.914;2023-01-19T05:54:17;9.70;;;5.78;;
52724;SDS011;38621;52.830;6.914;2023-01-19T05:56:42;10.43;;;7.10;;
52724;SDS011;38621;52.830;6.914;2023-01-19T05:59:08;10.60;;;7.07;;
52724;SDS011;38621;52.830;6.914;2023-01-19T06:01:34;10.90;;;6.63;;
52724;SDS011;38621;52.830;6.914;2023-01-19T06:04:01;9.27;;;6.30;;
52724;SDS011;38621;52.830;6.914;2023-01-19T06:06:27;11.48;;;6.72;;
52724;SDS011;38621;52.830;6.914;2023-01-19T06:08:53;9.35;;;6.28;;
52724;SDS011;38621;52.830;6.914;2023-01-19T06:11:18;12.07;;;6.93;;
52724;SDS011;38621;52.830;6.914;2023-01-19T06:13:45;9.27;;;5.43;;
52724;SDS011;38621;52.830;6.914;2023-01-19T06:16:11;6.60;;;4.10;;
52724;SDS011;38621;52.830;6.914;2023-01-19T06:18:38;7.55;;;4.10;;
52724;SDS011;38621;52.830;6.914;2023-01-19T06:21:05;7.68;;;4.45;;
52724;SDS011;38621;52.830;6.914;2023-01-19T06:23:32;6.88;;;3.70;;
52724;SDS011;38621;52.830;6.914;2023-01-19T06:25:59;7.47;;;3.15;;
52724;SDS011;38621;52.830;6.914;2023-01-19T06:28:24;5.53;;;3.22;;
52724;SDS011;38621;52.830;6.914;2023-01-19T06:30:51;4.75;;;2.75;;
52724;SDS011;38621;52.830;6.914;2023-01-19T06:33:17;6.80;;;2.75;;
52724;SDS011;38621;52.830;6.914;2023-01-19T06:35:44;4.00;;;2.50;;
52724;SDS011;38621;52.830;6.914;2023-01-19T06:38:11;5.32;;;2.67;;
52724;SDS011;38621;52.830;6.914;2023-01-19T06:40:41;6.18;;;2.55;;
52724;SDS011;38621;52.830;6.914;2023-01-19T06:43:07;3.67;;;1.83;;
52724;SDS011;38621;52.830;6.914;2023-01-19T06:45:33;3.22;;;1.80;;
52724;SDS011;38621;52.830;6.914;2023-01-19T06:47:59;4.38;;;1.85;;
52724;SDS011;38621;52.830;6.914;2023-01-19T06:50:25;4.30;;;2.00;;
52724;SDS011;38621;52.830;6.914;2023-01-19T06:52:51;4.95;;;1.60;;
52724;SDS011;38621;52.830;6.914;2023-01-19T06:55:17;3.17;;;1.50;;
52724;SDS011;38621;52.830;6.914;2023-01-19T06:57:43;3.60;;;1.30;;
52724;SDS011;38621;52.830;6.914;2023-01-19T07:00:10;2.55;;;1.10;;
52724;SDS011;38621;52.830;6.914;2023-01-19T07:02:39;4.32;;;1.33;;
52724;SDS011;38621;52.830;6.914;2023-01-19T07:05:06;5.78;;;1.30;;
52724;SDS011;38621;52.830;6.914;2023-01-19T07:07:33;4.30;;;1.15;;
52724;SDS011;38621;52.830;6.914;2023-01-19T07:09:59;7.13;;;1.95;;
52724;SDS011;38621;52.830;6.914;2023-01-19T07:12:25;2.67;;;0.85;;
52724;SDS011;38621;52.830;6.914;2023-01-19T07:14:51;2.88;;;1.02;;
52724;SDS011;38621;52.830;6.914;2023-01-19T07:17:17;2.13;;;0.75;;
52724;SDS011;38621;52.830;6.914;2023-01-19T07:19:44;1.85;;;0.80;;
52724;SDS011;38621;52.830;6.914;2023-01-19T07:22:10;2.42;;;0.90;;
52724;SDS011;38621;52.830;6.914;2023-01-19T07:24:36;2.20;;;0.98;;
52724;SDS011;38621;52.830;6.914;2023-01-19T07:27:02;2.25;;;0.98;;
52724;SDS011;38621;52.830;6.914;2023-01-19T07:29:29;3.08;;;1.05;;
52724;SDS011;38621;52.830;6.914;2023-01-19T07:31:55;4.25;;;0.95;;
52724;SDS011;38621;52.830;6.914;2023-01-19T07:34:20;6.00;;;0.90;;
52724;SDS011;38621;52.830;6.914;2023-01-19T07:36:46;3.95;;;0.90;;
52724;SDS011;38621;52.830;6.914;2023-01-19T07:39:12;3.17;;;0.90;;
52724;SDS011;38621;52.830;6.914;2023-01-19T07:41:38;2.65;;;0.95;;
52724;SDS011;38621;52.830;6.914;2023-01-19T07:44:04;4.38;;;0.90;;
52724;SDS011;38621;52.830;6.914;2023-01-19T07:46:29;3.95;;;0.90;;
52724;SDS011;38621;52.830;6.914;2023-01-19T07:48:55;1.77;;;0.70;;
52724;SDS011;38621;52.830;6.914;2023-01-19T07:51:21;4.75;;;0.70;;
52724;SDS011;38621;52.830;6.914;2023-01-19T07:53:50;3.40;;;0.70;;
52724;SDS011;38621;52.830;6.914;2023-01-19T07:56:16;4.60;;;0.77;;
52724;SDS011;38621;52.830;6.914;2023-01-19T07:58:42;5.53;;;1.30;;
52724;SDS011;38621;52.830;6.914;2023-01-19T08:01:08;4.13;;;0.90;;
52724;SDS011;38621;52.830;6.914;2023-01-19T08:03:35;4.93;;;1.10;;
52724;SDS011;38621;52.830;6.914;2023-01-19T08:06:01;3.22;;;1.30;;
52724;SDS011;38621;52.830;6.914;2023-01-19T08:08:30;2.00;;;0.80;;
52724;SDS011;38621;52.830;6.914;2023-01-19T08:10:57;4.55;;;1.15;;
52724;SDS011;38621;52.830;6.914;2023-01-19T08:13:23;5.30;;;0.88;;
52724;SDS011;38621;52.830;6.914;2023-01-19T08:15:49;5.05;;;1.00;;
52724;SDS011;38621;52.830;6.914;2023-01-19T08:18:16;3.22;;;0.80;;
52724;SDS011;38621;52.830;6.914;2023-01-19T08:20:42;7.78;;;1.10;;
52724;SDS011;38621;52.830;6.914;2023-01-19T08:23:07;3.67;;;0.88;;
52724;SDS011;38621;52.830;6.914;2023-01-19T08:25:37;4.78;;;0.82;;
52724;SDS011;38621;52.830;6.914;2023-01-19T08:28:06;9.73;;;1.80;;
52724;SDS011;38621;52.830;6.914;2023-01-19T08:30:33;4.15;;;0.80;;
52724;SDS011;38621;52.830;6.914;2023-01-19T08:32:59;3.75;;;1.13;;
52724;SDS011;38621;52.830;6.914;2023-01-19T08:35:31;5.25;;;1.00;;
52724;SDS011;38621;52.830;6.914;2023-01-19T08:37:58;2.63;;;1.02;;
52724;SDS011;38621;52.830;6.914;2023-01-19T08:40:32;4.65;;;1.42;;
52724;SDS011;38621;52.830;6.914;2023-01-19T08:43:04;4.35;;;1.02;;
52724;SDS011;38621;52.830;6.914;2023-01-19T08:45:32;3.85;;;1.20;;
52724;SDS011;38621;52.830;6.914;2023-01-19T08:48:02;4.80;;;1.30;;
52724;SDS011;38621;52.830;6.914;2023-01-19T08:50:30;2.65;;;0.98;;
52724;SDS011;38621;52.830;6.914;2023-01-19T08:52:57;3.58;;;1.80;;
52724;SDS011;38621;52.830;6.914;2023-01-19T08:55:24;9.10;;;1.73;;
52724;SDS011;38621;52.830;6.914;2023-01-19T08:57:51;4.70;;;1.20;;
52724;SDS011;38621;52.830;6.914;2023-01-19T09:00:18;6.68;;;1.10;;
52724;SDS011;38621;52.830;6.914;2023-01-19T09:02:45;5.05;;;1.20;;
52724;SDS011;38621;52.830;6.914;2023-01-19T09:05:11;4.07;;;1.08;;
52724;SDS011;38621;52.830;6.914;2023-01-19T09:07:36;5.18;;;1.00;;
52724;SDS011;38621;52.830;6.914;2023-01-19T09:10:05;6.35;;;1.05;;
52724;SDS011;38621;52.830;6.914;2023-01-19T09:12:32;6.60;;;1.20;;
52724;SDS011;38621;52.830;6.914;2023-01-19T09:14:57;5.97;;;1.17;;
52724;SDS011;38621;52.830;6.914;2023-01-19T09:17:23;7.10;;;1.60;;
52724;SDS011;38621;52.830;6.914;2023-01-19T09:19:49;6.47;;;1.98;;
52724;SDS011;38621;52.830;6.914;2023-01-19T09:22:15;8.20;;;1.48;;
52724;SDS011;38621;52.830;6.914;2023-01-19T09:24:40;9.30;;;1.70;;
52724;SDS011;38621;52.830;6.914;2023-01-19T09:27:06;8.85;;;1.67;;
52724;SDS011;38621;52.830;6.914;2023-01-19T09:29:32;6.13;;;1.60;;
52724;SDS011;38621;52.830;6.914;2023-01-19T09:31:57;6.90;;;1.85;;
52724;SDS011;38621;52.830;6.914;2023-01-19T09:34:23;4.88;;;1.48;;
52724;SDS011;38621;52.830;6.914;2023-01-19T09:36:51;4.72;;;1.52;;
52724;SDS011;38621;52.830;6.914;2023-01-19T09:39:17;7.40;;;1.20;;
52724;SDS011;38621;52.830;6.914;2023-01-19T09:41:44;4.75;;;1.60;;
52724;SDS011;38621;52.830;6.914;2023-01-19T09:44:15;7.32;;;1.77;;
52724;SDS011;38621;52.830;6.914;2023-01-19T09:46:49;6.25;;;1.92;;
52724;SDS011;38621;52.830;6.914;2023-01-19T09:49:15;3.88;;;1.40;;
52724;SDS011;38621;52.830;6.914;2023-01-19T09:51:50;6.47;;;2.15;;
52724;SDS011;38621;52.830;6.914;2023-01-19T09:54:23;6.68;;;1.60;;
52724;SDS011;38621;52.830;6.914;2023-01-19T09:56:59;8.07;;;1.88;;
52724;SDS011;38621;52.830;6.914;2023-01-19T09:59:29;8.18;;;1.40;;
52724;SDS011;38621;52.830;6.914;2023-01-19T10:05:03;3.35;;;1.23;;
52724;SDS011;38621;52.830;6.914;2023-01-19T10:10:33;10.90;;;1.45;;
52724;SDS011;38621;52.830;6.914;2023-01-19T10:13:03;7.55;;;1.30;;
52724;SDS011;38621;52.830;6.914;2023-01-19T10:20:45;6.25;;;1.60;;
52724;SDS011;38621;52.830;6.914;2023-01-19T10:23:17;4.82;;;1.20;;
52724;SDS011;38621;52.830;6.914;2023-01-19T10:25:59;3.35;;;1.25;;
52724;SDS011;38621;52.830;6.914;2023-01-19T10:28:29;5.60;;;1.30;;
52724;SDS011;38621;52.830;6.914;2023-01-19T10:30:56;4.07;;;1.17;;
52724;SDS011;38621;52.830;6.914;2023-01-19T10:33:21;3.97;;;0.95;;
52724;SDS011;38621;52.830;6.914;2023-01-19T10:35:47;1.85;;;0.80;;
52724;SDS011;38621;52.830;6.914;2023-01-19T10:38:13;5.03;;;1.48;;
52724;SDS011;38621;52.830;6.914;2023-01-19T10:41:05;5.82;;;1.10;;
52724;SDS011;38621;52.830;6.914;2023-01-19T10:43:40;5.15;;;1.45;;
52724;SDS011;38621;52.830;6.914;2023-01-19T10:46:20;4.47;;;0.80;;
52724;SDS011;38621;52.830;6.914;2023-01-19T10:48:52;3.80;;;1.10;;
52724;SDS011;38621;52.830;6.914;2023-01-19T10:51:20;5.32;;;1.02;;
52724;SDS011;38621;52.830;6.914;2023-01-19T10:56:38;2.88;;;0.98;;
52724;SDS011;38621;52.830;6.914;2023-01-19T10:59:04;7.55;;;1.38;;
52724;SDS011;38621;52.830;6.914;2023-01-19T11:01:31;3.78;;;0.80;;
52724;SDS011;38621;52.830;6.914;2023-01-19T11:04:17;6.03;;;2.35;;
52724;SDS011;38621;52.830;6.914;2023-01-19T11:06:45;4.22;;;1.02;;
52724;SDS011;38621;52.830;6.914;2023-01-19T11:09:18;5.70;;;1.20;;
52724;SDS011;38621;52.830;6.914;2023-01-19T11:11:49;5.38;;;1.48;;
52724;SDS011;38621;52.830;6.914;2023-01-19T11:14:17;2.25;;;1.02;;
52724;SDS011;38621;52.830;6.914;2023-01-19T11:16:48;4.03;;;1.27;;
52724;SDS011;38621;52.830;6.914;2023-01-19T11:19:18;4.93;;;1.75;;
52724;SDS011;38621;52.830;6.914;2023-01-19T11:21:51;5.43;;;1.00;;
52724;SDS011;38621;52.830;6.914;2023-01-19T11:24:17;5.10;;;1.17;;
52724;SDS011;38621;52.830;6.914;2023-01-19T11:26:48;3.60;;;1.00;;
52724;SDS011;38621;52.830;6.914;2023-01-19T11:29:22;3.00;;;1.02;;
52724;SDS011;38621;52.830;6.914;2023-01-19T11:31:51;5.03;;;1.10;;
52724;SDS011;38621;52.830;6.914;2023-01-19T11:34:25;6.55;;;1.13;;
52724;SDS011;38621;52.830;6.914;2023-01-19T11:39:46;5.82;;;0.90;;
52724;SDS011;38621;52.830;6.914;2023-01-19T11:42:13;5.15;;;1.00;;
52724;SDS011;38621;52.830;6.914;2023-01-19T11:44:52;2.97;;;1.10;;
52724;SDS011;38621;52.830;6.914;2023-01-19T11:47:37;3.97;;;1.10;;
52724;SDS011;38621;52.830;6.914;2023-01-19T11:52:46;5.97;;;1.20;;
52724;SDS011;38621;52.830;6.914;2023-01-19T11:55:17;5.50;;;0.80;;
52724;SDS011;38621;52.830;6.914;2023-01-19T11:57:49;2.22;;;0.60;;
52724;SDS011;38621;52.830;6.914;2023-01-19T12:00:26;2.72;;;1.00;;
52724;SDS011;38621;52.830;6.914;2023-01-19T12:03:46;5.35;;;1.15;;
52724;SDS011;38621;52.830;6.914;2023-01-19T12:06:14;4.43;;;0.90;;
52724;SDS011;38621;52.830;6.914;2023-01-19T12:08:46;3.35;;;0.98;;
52724;SDS011;38621;52.830;6.914;2023-01-19T12:11:16;5.07;;;1.17;;
52724;SDS011;38621;52.830;6.914;2023-01-19T12:13:45;4.80;;;1.05;;
52724;SDS011;38621;52.830;6.914;2023-01-19T12:16:22;1.20;;;0.52;;
52724;SDS011;38621;52.830;6.914;2023-01-19T12:19:02;2.65;;;1.10;;
52724;SDS011;38621;52.830;6.914;2023-01-19T12:21:37;4.25;;;0.90;;
52724;SDS011;38621;52.830;6.914;2023-01-19T12:24:04;7.22;;;1.13;;
52724;SDS011;38621;52.830;6.914;2023-01-19T12:26:47;4.93;;;0.90;;
52724;SDS011;38621;52.830;6.914;2023-01-19T12:29:21;3.28;;;0.70;;
52724;SDS011;38621;52.830;6.914;2023-01-19T12:34:41;4.38;;;1.00;;
52724;SDS011;38621;52.830;6.914;2023-01-19T12:39:59;2.67;;;0.68;;
52724;SDS011;38621;52.830;6.914;2023-01-19T12:42:29;3.75;;;0.88;;
52724;SDS011;38621;52.830;6.914;2023-01-19T12:45:05;2.25;;;0.90;;
52724;SDS011;38621;52.830;6.914;2023-01-19T12:47:33;3.42;;;1.27;;
52724;SDS011;38621;52.830;6.914;2023-01-19T12:50:03;3.10;;;0.88;;
52724;SDS011;38621;52.830;6.914;2023-01-19T12:52:39;3.47;;;0.52;;
52724;SDS011;38621;52.830;6.914;2023-01-19T13:02:46;2.20;;;0.70;;
52724;SDS011;38621;52.830;6.914;2023-01-19T13:21:42;5.93;;;1.73;;
52724;SDS011;38621;52.830;6.914;2023-01-19T13:24:13;2.55;;;0.77;;
52724;SDS011;38621;52.830;6.914;2023-01-19T13:26:50;3.03;;;0.82;;
52724;SDS011;38621;52.830;6.914;2023-01-19T13:29:28;2.83;;;0.80;;
52724;SDS011;38621;52.830;6.914;2023-01-19T13:31:58;5.25;;;0.75;;
52724;SDS011;38621;52.830;6.914;2023-01-19T13:34:30;1.75;;;0.70;;
52724;SDS011;38621;52.830;6.914;2023-01-19T13:37:04;2.33;;;0.63;;
52724;SDS011;38621;52.830;6.914;2023-01-19T13:39:37;1.48;;;0.60;;
52724;SDS011;38621;52.830;6.914;2023-01-19T13:42:07;2.63;;;0.70;;
52724;SDS011;38621;52.830;6.914;2023-01-19T13:44:40;3.58;;;0.95;;
52724;SDS011;38621;52.830;6.914;2023-01-19T13:47:12;2.03;;;1.00;;
52724;SDS011;38621;52.830;6.914;2023-01-19T13:49:43;3.10;;;1.05;;
52724;SDS011;38621;52.830;6.914;2023-01-19T13:52:14;3.15;;;0.70;;
52724;SDS011;38621;52.830;6.914;2023-01-19T13:54:52;2.67;;;0.60;;
52724;SDS011;38621;52.830;6.914;2023-01-19T13:57:41;3.53;;;0.95;;
52724;SDS011;38621;52.830;6.914;2023-01-19T14:02:56;4.65;;;1.30;;
52724;SDS011;38621;52.830;6.914;2023-01-19T14:05:36;1.17;;;0.43;;
52724;SDS011;38621;52.830;6.914;2023-01-19T14:10:36;2.17;;;0.80;;
52724;SDS011;38621;52.830;6.914;2023-01-19T14:13:12;3.22;;;0.73;;
52724;SDS011;38621;52.830;6.914;2023-01-19T14:15:43;2.67;;;1.00;;
52724;SDS011;38621;52.830;6.914;2023-01-19T14:18:20;2.03;;;0.55;;
52724;SDS011;38621;52.830;6.914;2023-01-19T14:29:14;2.05;;;0.63;;
52724;SDS011;38621;52.830;6.914;2023-01-19T14:32:34;1.92;;;0.65;;
52724;SDS011;38621;52.830;6.914;2023-01-19T14:39:55;2.22;;;0.70;;
52724;SDS011;38621;52.830;6.914;2023-01-19T14:42:27;2.53;;;0.75;;
52724;SDS011;38621;52.830;6.914;2023-01-19T14:44:59;2.80;;;0.77;;
52724;SDS011;38621;52.830;6.914;2023-01-19T14:47:28;1.75;;;0.50;;
52724;SDS011;38621;52.830;6.914;2023-01-19T14:50:04;2.92;;;0.70;;
52724;SDS011;38621;52.830;6.914;2023-01-19T14:52:35;5.15;;;0.80;;
52724;SDS011;38621;52.830;6.914;2023-01-19T14:55:03;1.67;;;0.77;;
52724;SDS011;38621;52.830;6.914;2023-01-19T14:57:34;2.88;;;0.70;;
52724;SDS011;38621;52.830;6.914;2023-01-19T15:00:22;4.18;;;1.25;;
52724;SDS011;38621;52.830;6.914;2023-01-19T15:02:47;4.78;;;0.70;;
52724;SDS011;38621;52.830;6.914;2023-01-19T15:05:13;2.78;;;0.70;;
52724;SDS011;38621;52.830;6.914;2023-01-19T15:07:40;3.33;;;0.80;;
52724;SDS011;38621;52.830;6.914;2023-01-19T15:10:13;1.92;;;0.80;;
52724;SDS011;38621;52.830;6.914;2023-01-19T15:12:42;2.70;;;0.75;;
52724;SDS011;38621;52.830;6.914;2023-01-19T15:15:12;1.67;;;0.65;;
52724;SDS011;38621;52.830;6.914;2023-01-19T15:17:59;3.05;;;0.77;;
52724;SDS011;38621;52.830;6.914;2023-01-19T15:20:28;1.23;;;0.60;;
52724;SDS011;38621;52.830;6.914;2023-01-19T15:22:53;2.38;;;0.77;;
52724;SDS011;38621;52.830;6.914;2023-01-19T15:25:21;2.85;;;0.63;;
52724;SDS011;38621;52.830;6.914;2023-01-19T15:27:50;4.22;;;0.60;;
52724;SDS011;38621;52.830;6.914;2023-01-19T15:30:18;2.60;;;0.90;;
52724;SDS011;38621;52.830;6.914;2023-01-19T15:32:49;2.35;;;0.60;;
52724;SDS011;38621;52.830;6.914;2023-01-19T15:35:16;1.77;;;0.70;;
52724;SDS011;38621;52.830;6.914;2023-01-19T15:37:44;2.42;;;0.80;;
52724;SDS011;38621;52.830;6.914;2023-01-19T15:40:10;3.25;;;0.77;;
52724;SDS011;38621;52.830;6.914;2023-01-19T15:42:36;2.35;;;0.75;;
52724;SDS011;38621;52.830;6.914;2023-01-19T15:45:15;2.35;;;0.80;;
52724;SDS011;38621;52.830;6.914;2023-01-19T15:47:56;3.33;;;0.90;;
52724;SDS011;38621;52.830;6.914;2023-01-19T15:50:22;3.05;;;1.75;;
52724;SDS011;38621;52.830;6.914;2023-01-19T15:52:50;3.75;;;0.95;;
52724;SDS011;38621;52.830;6.914;2023-01-19T15:55:15;2.85;;;0.77;;
52724;SDS011;38621;52.830;6.914;2023-01-19T15:57:41;3.22;;;0.77;;
52724;SDS011;38621;52.830;6.914;2023-01-19T16:00:07;2.67;;;0.93;;
52724;SDS011;38621;52.830;6.914;2023-01-19T16:02:37;3.38;;;1.02;;
52724;SDS011;38621;52.830;6.914;2023-01-19T16:05:02;2.38;;;0.82;;
52724;SDS011;38621;52.830;6.914;2023-01-19T16:07:28;2.50;;;0.82;;
52724;SDS011;38621;52.830;6.914;2023-01-19T16:09:54;6.18;;;1.13;;
52724;SDS011;38621;52.830;6.914;2023-01-19T16:12:20;3.03;;;1.10;;
52724;SDS011;38621;52.830;6.914;2023-01-19T16:14:45;3.25;;;0.90;;
52724;SDS011;38621;52.830;6.914;2023-01-19T16:17:11;3.85;;;1.90;;
52724;SDS011;38621;52.830;6.914;2023-01-19T16:19:37;2.53;;;1.10;;
52724;SDS011;38621;52.830;6.914;2023-01-19T16:22:02;3.88;;;0.90;;